sensor_id;sensor_type;location;lat;lon;timestamp;temperature;humidity
54884;DHT22;40776;52.880;6.016;2022-08-19T01:31:18;15.10;99.90
54884;DHT22;40776;52.880;6.016;2022-08-19T06:28:48;18.40;99.90
54884;DHT22;40776;52.880;6.016;2022-08-19T06:36:35;18.80;99.90
54884;DHT22;40776;52.880;6.016;2022-08-19T06:39:04;18.90;99.90
54884;DHT22;40776;52.880;6.016;2022-08-19T06:46:23;19.60;99.90
54884;DHT22;40776;52.880;6.016;2022-08-19T06:51:16;19.70;99.90
54884;DHT22;40776;52.880;6.016;2022-08-19T06:53:45;19.90;99.90
54884;DHT22;40776;52.880;6.016;2022-08-19T07:07:13;20.50;99.90
54884;DHT22;40776;52.880;6.016;2022-08-19T07:09:42;21.10;99.90
54884;DHT22;40776;52.880;6.016;2022-08-19T07:12:10;20.90;99.90
54884;DHT22;40776;52.880;6.016;2022-08-19T07:14:37;21.20;99.90
54884;DHT22;40776;52.880;6.016;2022-08-19T07:17:05;21.20;99.90
54884;DHT22;40776;52.880;6.016;2022-08-19T07:19:31;21.30;99.90
54884;DHT22;40776;52.880;6.016;2022-08-19T07:21:57;21.40;99.90
54884;DHT22;40776;52.880;6.016;2022-08-19T07:24:26;21.60;99.90
54884;DHT22;40776;52.880;6.016;2022-08-19T07:26:54;21.40;99.90
54884;DHT22;40776;52.880;6.016;2022-08-19T07:31:51;21.70;99.90
54884;DHT22;40776;52.880;6.016;2022-08-19T07:34:18;22.10;99.90
54884;DHT22;40776;52.880;6.016;2022-08-19T07:36:44;22.00;99.90
54884;DHT22;40776;52.880;6.016;2022-08-19T07:39:17;22.40;99.90
54884;DHT22;40776;52.880;6.016;2022-08-19T07:41:45;22.20;99.90
54884;DHT22;40776;52.880;6.016;2022-08-19T07:44:11;22.30;99.90
54884;DHT22;40776;52.880;6.016;2022-08-19T07:46:40;22.30;99.90
54884;DHT22;40776;52.880;6.016;2022-08-19T07:49:07;24.00;99.90
54884;DHT22;40776;52.880;6.016;2022-08-19T07:51:33;23.00;99.90
54884;DHT22;40776;52.880;6.016;2022-08-19T07:53:59;22.80;99.90
54884;DHT22;40776;52.880;6.016;2022-08-19T07:56:25;23.20;99.90
54884;DHT22;40776;52.880;6.016;2022-08-19T07:58:52;22.70;99.90
54884;DHT22;40776;52.880;6.016;2022-08-19T08:01:21;23.90;99.90
54884;DHT22;40776;52.880;6.016;2022-08-19T08:03:49;22.70;99.90
54884;DHT22;40776;52.880;6.016;2022-08-19T08:06:34;23.40;99.90
54884;DHT22;40776;52.880;6.016;2022-08-19T08:09:23;22.80;99.90
54884;DHT22;40776;52.880;6.016;2022-08-19T08:11:54;22.80;99.90
54884;DHT22;40776;52.880;6.016;2022-08-19T08:14:23;23.10;99.90
54884;DHT22;40776;52.880;6.016;2022-08-19T08:16:50;23.10;99.90
54884;DHT22;40776;52.880;6.016;2022-08-19T08:19:19;23.40;99.90
54884;DHT22;40776;52.880;6.016;2022-08-19T08:21:46;23.50;99.90
54884;DHT22;40776;52.880;6.016;2022-08-19T08:24:12;25.30;99.90
54884;DHT22;40776;52.880;6.016;2022-08-19T08:26:39;25.10;99.90
54884;DHT22;40776;52.880;6.016;2022-08-19T08:29:04;23.80;99.90
54884;DHT22;40776;52.880;6.016;2022-08-19T08:31:30;23.90;99.90
54884;DHT22;40776;52.880;6.016;2022-08-19T08:33:56;23.90;99.90
54884;DHT22;40776;52.880;6.016;2022-08-19T08:36:21;24.40;99.90
54884;DHT22;40776;52.880;6.016;2022-08-19T08:38:47;24.20;99.90
54884;DHT22;40776;52.880;6.016;2022-08-19T08:43:46;24.30;99.90
54884;DHT22;40776;52.880;6.016;2022-08-19T08:46:28;24.30;99.90
54884;DHT22;40776;52.880;6.016;2022-08-19T08:51:48;25.00;99.90
54884;DHT22;40776;52.880;6.016;2022-08-19T08:54:23;25.30;99.90
54884;DHT22;40776;52.880;6.016;2022-08-19T08:56:52;26.30;99.90
54884;DHT22;40776;52.880;6.016;2022-08-19T08:59:29;25.20;99.90
54884;DHT22;40776;52.880;6.016;2022-08-19T09:01:59;25.50;99.90
54884;DHT22;40776;52.880;6.016;2022-08-19T09:04:25;26.50;99.90
54884;DHT22;40776;52.880;6.016;2022-08-19T09:14:55;25.30;99.90
54884;DHT22;40776;52.880;6.016;2022-08-19T09:17:25;25.40;99.90
54884;DHT22;40776;52.880;6.016;2022-08-19T09:20:08;25.50;99.90
54884;DHT22;40776;52.880;6.016;2022-08-19T09:22:40;25.40;99.90
54884;DHT22;40776;52.880;6.016;2022-08-19T09:25:08;25.30;99.90
54884;DHT22;40776;52.880;6.016;2022-08-19T09:27:35;25.40;99.90
54884;DHT22;40776;52.880;6.016;2022-08-19T09:30:03;25.60;99.90
54884;DHT22;40776;52.880;6.016;2022-08-19T09:32:30;25.70;99.90
54884;DHT22;40776;52.880;6.016;2022-08-19T09:34:55;26.10;99.90
54884;DHT22;40776;52.880;6.016;2022-08-19T09:37:24;25.90;99.90
54884;DHT22;40776;52.880;6.016;2022-08-19T09:39:50;27.30;99.90
54884;DHT22;40776;52.880;6.016;2022-08-19T09:42:16;27.20;99.90
54884;DHT22;40776;52.880;6.016;2022-08-19T09:44:43;26.10;99.90
54884;DHT22;40776;52.880;6.016;2022-08-19T09:47:10;26.10;99.90
54884;DHT22;40776;52.880;6.016;2022-08-19T09:49:37;26.00;99.90
54884;DHT22;40776;52.880;6.016;2022-08-19T09:52:04;25.70;99.90
54884;DHT22;40776;52.880;6.016;2022-08-19T09:54:30;26.10;99.90
54884;DHT22;40776;52.880;6.016;2022-08-19T09:56:58;25.70;99.90
54884;DHT22;40776;52.880;6.016;2022-08-19T09:59:26;25.70;99.90
54884;DHT22;40776;52.880;6.016;2022-08-19T10:01:51;25.70;99.90
54884;DHT22;40776;52.880;6.016;2022-08-19T10:04:17;27.20;99.90
54884;DHT22;40776;52.880;6.016;2022-08-19T10:06:43;25.80;99.90
54884;DHT22;40776;52.880;6.016;2022-08-19T10:09:10;26.20;99.90
54884;DHT22;40776;52.880;6.016;2022-08-19T10:11:39;26.20;99.90
54884;DHT22;40776;52.880;6.016;2022-08-19T10:14:06;26.10;99.90
54884;DHT22;40776;52.880;6.016;2022-08-19T10:16:32;27.60;99.90
54884;DHT22;40776;52.880;6.016;2022-08-19T10:18:58;26.20;99.90
54884;DHT22;40776;52.880;6.016;2022-08-19T10:21:30;26.10;99.90
54884;DHT22;40776;52.880;6.016;2022-08-19T10:23:59;24.70;99.90
54884;DHT22;40776;52.880;6.016;2022-08-19T10:26:31;26.10;99.90
54884;DHT22;40776;52.880;6.016;2022-08-19T10:28:57;26.10;99.90
54884;DHT22;40776;52.880;6.016;2022-08-19T10:31:26;26.00;99.90
54884;DHT22;40776;52.880;6.016;2022-08-19T10:33:52;26.00;99.90
54884;DHT22;40776;52.880;6.016;2022-08-19T10:36:25;26.00;99.90
54884;DHT22;40776;52.880;6.016;2022-08-19T10:38:53;26.30;99.90
54884;DHT22;40776;52.880;6.016;2022-08-19T10:41:21;26.60;99.90
54884;DHT22;40776;52.880;6.016;2022-08-19T10:43:54;26.40;99.90
54884;DHT22;40776;52.880;6.016;2022-08-19T10:46:21;26.70;99.90
54884;DHT22;40776;52.880;6.016;2022-08-19T10:48:49;26.80;99.90
54884;DHT22;40776;52.880;6.016;2022-08-19T10:51:14;27.10;99.90
54884;DHT22;40776;52.880;6.016;2022-08-19T10:53:59;27.00;99.90
54884;DHT22;40776;52.880;6.016;2022-08-19T10:56:26;27.30;99.90
54884;DHT22;40776;52.880;6.016;2022-08-19T10:59:11;27.50;99.90
54884;DHT22;40776;52.880;6.016;2022-08-19T11:01:40;27.90;99.90
54884;DHT22;40776;52.880;6.016;2022-08-19T11:04:06;27.90;99.90
54884;DHT22;40776;52.880;6.016;2022-08-19T11:06:37;27.50;99.90
54884;DHT22;40776;52.880;6.016;2022-08-19T11:09:04;27.70;99.90
54884;DHT22;40776;52.880;6.016;2022-08-19T11:11:31;28.50;99.90
54884;DHT22;40776;52.880;6.016;2022-08-19T11:13:57;27.40;99.90
54884;DHT22;40776;52.880;6.016;2022-08-19T11:16:25;27.80;99.90
54884;DHT22;40776;52.880;6.016;2022-08-19T11:18:54;27.90;99.90
54884;DHT22;40776;52.880;6.016;2022-08-19T11:21:29;27.70;99.90
54884;DHT22;40776;52.880;6.016;2022-08-19T11:23:59;27.80;99.90
54884;DHT22;40776;52.880;6.016;2022-08-19T11:26:26;27.90;99.90
54884;DHT22;40776;52.880;6.016;2022-08-19T11:28:52;27.90;99.90
54884;DHT22;40776;52.880;6.016;2022-08-19T11:31:22;28.00;99.90
54884;DHT22;40776;52.880;6.016;2022-08-19T11:33:48;27.90;99.90
54884;DHT22;40776;52.880;6.016;2022-08-19T11:36:18;27.80;99.90
54884;DHT22;40776;52.880;6.016;2022-08-19T11:38:46;27.50;99.90
54884;DHT22;40776;52.880;6.016;2022-08-19T11:41:15;27.60;99.90
54884;DHT22;40776;52.880;6.016;2022-08-19T11:43:40;27.40;99.90
54884;DHT22;40776;52.880;6.016;2022-08-19T11:46:08;27.20;99.90
54884;DHT22;40776;52.880;6.016;2022-08-19T11:48:36;27.50;99.90
54884;DHT22;40776;52.880;6.016;2022-08-19T11:51:11;27.30;99.90
54884;DHT22;40776;52.880;6.016;2022-08-19T11:53:38;27.50;99.90
54884;DHT22;40776;52.880;6.016;2022-08-19T11:56:05;27.40;99.90
54884;DHT22;40776;52.880;6.016;2022-08-19T11:58:31;27.50;99.90
54884;DHT22;40776;52.880;6.016;2022-08-19T12:00:57;27.20;99.90
54884;DHT22;40776;52.880;6.016;2022-08-19T12:03:23;27.30;99.90
54884;DHT22;40776;52.880;6.016;2022-08-19T12:05:50;27.30;99.90
54884;DHT22;40776;52.880;6.016;2022-08-19T12:08:16;27.00;99.90
54884;DHT22;40776;52.880;6.016;2022-08-19T12:10:42;26.90;99.90
54884;DHT22;40776;52.880;6.016;2022-08-19T12:13:09;26.80;99.90
54884;DHT22;40776;52.880;6.016;2022-08-19T12:15:37;26.90;99.90
54884;DHT22;40776;52.880;6.016;2022-08-19T12:18:04;28.00;99.90
54884;DHT22;40776;52.880;6.016;2022-08-19T12:20:29;26.70;99.90
54884;DHT22;40776;52.880;6.016;2022-08-19T12:22:55;27.00;99.90
54884;DHT22;40776;52.880;6.016;2022-08-19T12:25:21;26.70;99.90
54884;DHT22;40776;52.880;6.016;2022-08-19T12:27:47;26.70;99.90
54884;DHT22;40776;52.880;6.016;2022-08-19T12:33:23;25.70;99.90
54884;DHT22;40776;52.880;6.016;2022-08-19T12:42:57;27.50;99.90
54884;DHT22;40776;52.880;6.016;2022-08-19T12:45:22;27.60;99.90
54884;DHT22;40776;52.880;6.016;2022-08-19T12:47:48;27.80;99.90
54884;DHT22;40776;52.880;6.016;2022-08-19T12:50:14;27.50;99.90
54884;DHT22;40776;52.880;6.016;2022-08-19T12:52:40;27.30;99.90
54884;DHT22;40776;52.880;6.016;2022-08-19T12:55:08;27.60;99.90
54884;DHT22;40776;52.880;6.016;2022-08-19T12:57:34;27.50;99.90
54884;DHT22;40776;52.880;6.016;2022-08-19T13:00:07;27.60;99.90
54884;DHT22;40776;52.880;6.016;2022-08-19T13:02:36;27.50;99.90
54884;DHT22;40776;52.880;6.016;2022-08-19T13:05:03;27.10;99.90
54884;DHT22;40776;52.880;6.016;2022-08-19T13:07:29;27.30;99.90
54884;DHT22;40776;52.880;6.016;2022-08-19T13:09:56;27.10;99.90
54884;DHT22;40776;52.880;6.016;2022-08-19T13:12:22;27.40;99.90
54884;DHT22;40776;52.880;6.016;2022-08-19T13:14:54;27.50;99.90
54884;DHT22;40776;52.880;6.016;2022-08-19T13:17:20;27.70;99.90
54884;DHT22;40776;52.880;6.016;2022-08-19T13:19:46;27.50;99.90
54884;DHT22;40776;52.880;6.016;2022-08-19T13:22:11;26.80;99.90
54884;DHT22;40776;52.880;6.016;2022-08-19T13:24:37;26.40;99.90
54884;DHT22;40776;52.880;6.016;2022-08-19T13:27:03;26.00;99.90
54884;DHT22;40776;52.880;6.016;2022-08-19T13:29:29;25.60;99.90
54884;DHT22;40776;52.880;6.016;2022-08-19T13:32:13;25.70;99.90
54884;DHT22;40776;52.880;6.016;2022-08-19T13:34:57;25.40;99.90
54884;DHT22;40776;52.880;6.016;2022-08-19T13:37:23;25.40;99.90
54884;DHT22;40776;52.880;6.016;2022-08-19T13:49:51;25.10;99.90
54884;DHT22;40776;52.880;6.016;2022-08-19T14:02:04;25.60;99.90
54884;DHT22;40776;52.880;6.016;2022-08-19T14:09:23;26.60;99.90
54884;DHT22;40776;52.880;6.016;2022-08-19T14:11:48;26.70;99.90
54884;DHT22;40776;52.880;6.016;2022-08-19T14:16:42;26.70;99.90
54884;DHT22;40776;52.880;6.016;2022-08-19T14:19:08;26.50;99.90
54884;DHT22;40776;52.880;6.016;2022-08-19T14:24:01;26.30;99.90
54884;DHT22;40776;52.880;6.016;2022-08-19T14:26:27;26.40;99.90
54884;DHT22;40776;52.880;6.016;2022-08-19T14:28:52;26.30;99.90
54884;DHT22;40776;52.880;6.016;2022-08-19T14:33:49;26.40;99.90
54884;DHT22;40776;52.880;6.016;2022-08-19T14:38:42;26.40;99.90
54884;DHT22;40776;52.880;6.016;2022-08-19T14:41:14;26.50;99.90
54884;DHT22;40776;52.880;6.016;2022-08-19T14:43:43;26.70;99.90
54884;DHT22;40776;52.880;6.016;2022-08-19T14:51:05;26.60;99.90
54884;DHT22;40776;52.880;6.016;2022-08-19T14:58:26;26.00;99.90
54884;DHT22;40776;52.880;6.016;2022-08-19T15:00:51;25.80;99.90
54884;DHT22;40776;52.880;6.016;2022-08-19T15:03:17;25.80;99.90
54884;DHT22;40776;52.880;6.016;2022-08-19T15:17:56;25.40;99.90
54884;DHT22;40776;52.880;6.016;2022-08-19T15:30:26;25.60;99.90
54884;DHT22;40776;52.880;6.016;2022-08-19T15:35:21;25.40;99.90
54884;DHT22;40776;52.880;6.016;2022-08-19T15:37:53;25.50;99.90
54884;DHT22;40776;52.880;6.016;2022-08-19T15:40:24;25.50;99.90
54884;DHT22;40776;52.880;6.016;2022-08-19T15:42:50;25.20;99.90
54884;DHT22;40776;52.880;6.016;2022-08-19T15:45:17;25.30;99.90
54884;DHT22;40776;52.880;6.016;2022-08-19T15:50:19;25.20;99.90
54884;DHT22;40776;52.880;6.016;2022-08-19T15:52:50;25.20;99.90
54884;DHT22;40776;52.880;6.016;2022-08-19T15:55:22;25.20;99.90
54884;DHT22;40776;52.880;6.016;2022-08-19T15:57:49;25.30;99.90
54884;DHT22;40776;52.880;6.016;2022-08-19T16:11:17;24.60;99.90
54884;DHT22;40776;52.880;6.016;2022-08-19T16:13:52;24.80;99.90
54884;DHT22;40776;52.880;6.016;2022-08-19T16:16:25;24.80;99.90
54884;DHT22;40776;52.880;6.016;2022-08-19T16:23:48;24.90;99.90
54884;DHT22;40776;52.880;6.016;2022-08-19T16:26:15;24.70;99.90
54884;DHT22;40776;52.880;6.016;2022-08-19T16:28:42;24.70;99.90
54884;DHT22;40776;52.880;6.016;2022-08-19T16:40:52;24.30;99.90
54884;DHT22;40776;52.880;6.016;2022-08-19T16:48:24;24.20;99.90
54884;DHT22;40776;52.880;6.016;2022-08-19T17:23:08;24.40;99.90
54884;DHT22;40776;52.880;6.016;2022-08-19T18:07:08;22.80;99.90
54884;DHT22;40776;52.880;6.016;2022-08-19T19:14:37;21.20;99.90
